Time;durP1;ratioP1;P1;durP2;ratioP2;P2;SDS_P1;SDS_P2;PMS_P1;PMS_P2;Temp;Humidity;BMP_temperature;BMP_pressure;BME280_temperature;BME280_humidity;BME280_pressure;Samples;Min_cycle;Max_cycle;Signal;HPM_P1;HPM_P2
2020/12/12 10:22:47;;;;;;;4.75;3.65;;;9.10;99.90;;;;;;5820312;24;20228;-84
2020/12/12 10:49:08;;;;;;;3.10;2.85;;;8.80;99.90;;;;;;5869612;24;20182;-84
2020/12/12 10:51:55;;;;;;;3.65;3.35;;;7.90;99.90;;;;;;6057528;23;20188;-86
2020/12/12 10:54:26;;;;;;;3.72;3.42;;;8.20;99.90;;;;;;6075142;23;20173;-84
2020/12/12 10:57:03;;;;;;;3.55;3.25;;;6.90;99.90;;;;;;6074637;23;20204;-85
2020/12/12 11:09:13;;;;;;;2.70;2.50;;;8.20;99.90;;;;;;6078835;23;20269;-85
2020/12/12 11:21:50;;;;;;;;;;;;;;;;;;;;;
2020/12/12 11:24:48;;;;;;;2.85;2.65;;;8.30;99.90;;;;;;5895549;24;20234;-85
2020/12/12 11:27:28;;;;;;;3.38;3.08;;;8.40;99.90;;;;;;6023531;23;20257;-86
2020/12/12 12:41:06;;;;;;;3.28;2.97;;;8.60;99.90;;;;;;6046937;23;20189;-86
2020/12/12 12:44:08;;;;;;;4.25;3.85;;;9.20;99.90;;;;;;5892838;24;20254;-85
2020/12/12 13:11:39;;;;;;;4.13;3.63;;;8.20;99.90;;;;;;6078508;23;20223;-84
2020/12/12 13:24:37;;;;;;;;;;;;;;;;;;;;;
2020/12/12 15:01:31;;;;;;;15.63;14.27;;;8.60;99.90;;;;;;5927691;24;20325;-86
2020/12/12 16:58:14;;;;;;;;;;;;;;;;;;;;;
2020/12/12 17:34:27;;;;;;;;;;;;;;;;;;;;;
2020/12/12 17:37:29;;;;;;;;;;;;;;;;;;;;;
2020/12/12 18:06:22;;;;;;;;;;;;;;;;;;;;;
2020/12/12 18:12:52;;;;;;;5.43;4.78;;;7.30;99.90;;;;;;5826866;24;20191;-86
2020/12/12 18:32:26;;;;;;;;;;;;;;;;;;;;;
2020/12/12 18:51:37;;;;;;;;;;;;;;;;;;;;;
2020/12/12 18:54:50;;;;;;;;;;;;;;;;;;;;;
2020/12/12 19:01:23;;;;;;;;;;;;;;;;;;;;;
2020/12/12 19:04:18;;;;;;;3.78;3.42;;;7.20;99.90;;;;;;5890656;24;20196;-83
2020/12/12 19:06:44;;;;;;;4.57;3.55;;;7.10;99.90;;;;;;6057019;23;20210;-83
2020/12/12 19:09:13;;;;;;;4.50;4.13;;;7.20;99.90;;;;;;6056279;23;20210;-83
2020/12/12 19:11:41;;;;;;;4.60;4.30;;;7.30;99.90;;;;;;6056560;23;20198;-83
2020/12/12 19:14:10;;;;;;;7.60;3.53;;;7.10;99.90;;;;;;6057277;23;20186;-83
2020/12/12 19:16:37;;;;;;;2.70;2.50;;;7.20;99.90;;;;;;6056870;23;20206;-82
2020/12/12 19:19:03;;;;;;;3.38;3.08;;;7.30;99.90;;;;;;6058349;23;20790;-84
2020/12/12 19:21:30;;;;;;;3.60;3.05;;;7.20;99.90;;;;;;6058895;23;20237;-82
2020/12/12 19:23:57;;;;;;;6.57;3.28;;;7.30;99.90;;;;;;6056331;23;20186;-82
2020/12/12 19:26:23;;;;;;;3.30;2.60;;;7.30;99.90;;;;;;6057179;23;20293;-84
2020/12/12 19:28:50;;;;;;;3.80;3.25;;;7.30;99.90;;;;;;6058472;23;20186;-83
2020/12/12 19:31:17;;;;;;;4.00;3.10;;;7.40;99.90;;;;;;6056777;23;20234;-81
2020/12/12 19:33:43;;;;;;;2.70;2.45;;;7.50;99.90;;;;;;6057770;23;20209;-81
2020/12/12 19:36:09;;;;;;;2.90;2.70;;;7.40;99.90;;;;;;6058899;23;20202;-82
2020/12/12 19:38:35;;;;;;;3.15;2.95;;;7.40;99.90;;;;;;6058179;23;20182;-81
2020/12/12 19:41:03;;;;;;;3.45;3.08;;;7.50;99.90;;;;;;6058195;23;20178;-81
2020/12/12 19:43:30;;;;;;;4.35;3.83;;;7.50;99.90;;;;;;6057920;23;20192;-81
2020/12/12 19:45:57;;;;;;;4.57;3.95;;;7.40;99.90;;;;;;6057749;23;20202;-81
2020/12/12 19:48:24;;;;;;;4.95;3.85;;;7.70;99.90;;;;;;6060576;23;20214;-83
2020/12/12 19:50:50;;;;;;;7.68;4.28;;;7.40;99.90;;;;;;6064281;23;20190;-83
2020/12/12 19:53:16;;;;;;;4.22;3.83;;;7.50;99.90;;;;;;6063459;23;20193;-83
2020/12/12 19:55:42;;;;;;;3.85;3.50;;;7.50;99.90;;;;;;6063950;23;20237;-83
2020/12/12 19:58:10;;;;;;;5.00;4.10;;;7.50;99.90;;;;;;6063766;23;20189;-85
2020/12/12 20:00:50;;;;;;;4.43;4.03;;;7.90;99.90;;;;;;6062810;23;20182;-86
2020/12/12 20:16:27;;;;;;;4.25;3.95;;;7.80;99.90;;;;;;5974942;24;20264;-84
2020/12/12 20:28:06;;;;;;;4.80;4.40;;;7.70;99.90;;;;;;6062798;23;20457;-85
2020/12/12 20:30:48;;;;;;;6.25;5.75;;;7.60;99.90;;;;;;6062604;23;20224;-84
2020/12/12 20:33:35;;;;;;;5.20;4.80;;;7.60;99.90;;;;;;6061874;23;20301;-85
2020/12/12 20:36:03;;;;;;;4.00;3.70;;;7.60;99.90;;;;;;6061609;23;20202;-84
2020/12/12 20:39:04;;;;;;;5.05;4.65;;;7.50;99.90;;;;;;6061127;23;20666;-85
2020/12/12 20:41:50;;;;;;;8.07;5.53;;;7.40;99.90;;;;;;5918999;24;20185;-84
2020/12/12 20:44:36;;;;;;;;;;;;;;;;;;;;;
2020/12/12 20:47:24;;;;;;;5.80;5.30;;;7.50;99.90;;;;;;6059186;23;20208;-84
2020/12/12 21:01:18;;;;;;;;;;;;;;;;;;;;;
2020/12/12 21:10:30;;;;;;;;;;;;;;;;;;;;;
2020/12/12 21:13:37;;;;;;;6.82;6.13;;;7.50;99.90;;;;;;5941327;24;20213;-84
2020/12/12 21:16:27;;;;;;;9.52;8.73;;;7.50;99.90;;;;;;6029863;23;20240;-86
2020/12/12 21:19:46;;;;;;;;;;;;;;;;;;;;;
2020/12/12 21:45:24;;;;;;;8.98;8.18;;;7.20;99.90;;;;;;5797857;24;20215;-86
2020/12/12 21:48:02;;;;;;;9.05;8.23;;;7.30;99.90;;;;;;5890394;24;20213;-84
2020/12/12 21:50:55;;;;;;;8.65;7.85;;;7.30;99.90;;;;;;5968398;24;20204;-83
2020/12/12 21:56:22;;;;;;;9.57;8.23;;;7.20;99.90;;;;;;6049449;23;20201;-85
2020/12/12 22:02:38;;;;;;;34.30;25.02;;;7.60;99.90;;;;;;5943879;23;20192;-85
2020/12/12 22:05:25;;;;;;;24.00;17.33;;;7.30;99.90;;;;;;6058664;23;20202;-85
2020/12/12 22:17:33;;;;;;;8.95;8.15;;;7.10;99.90;;;;;;6055860;23;20205;-85
2020/12/12 22:20:37;;;;;;;7.97;7.25;;;7.20;99.90;;;;;;6060992;23;20201;-85
2020/12/12 22:23:08;;;;;;;10.15;8.60;;;7.10;99.90;;;;;;6051559;23;20180;-86
2020/12/12 22:47:40;;;;;;;9.55;7.90;;;7.50;99.90;;;;;;5803316;24;20254;-85
2020/12/12 22:50:07;;;;;;;8.98;8.13;;;7.50;99.90;;;;;;5914491;23;20183;-84
2020/12/12 22:52:35;;;;;;;13.88;8.73;;;7.30;99.90;;;;;;6058805;23;20641;-83
2020/12/12 22:55:04;;;;;;;9.23;8.20;;;6.80;99.90;;;;;;6060341;23;20182;-85
2020/12/12 22:57:31;;;;;;;11.77;8.95;;;7.40;99.90;;;;;;6060526;23;20202;-84
2020/12/12 22:59:57;;;;;;;8.65;7.95;;;8.10;99.90;;;;;;6061043;23;20600;-85
2020/12/12 23:02:25;;;;;;;10.07;8.98;;;7.30;99.90;;;;;;6061085;23;20245;-85
2020/12/12 23:05:01;;;;;;;9.38;8.48;;;7.40;99.90;;;;;;6061515;23;20236;-85
2020/12/12 23:07:27;;;;;;;9.60;8.18;;;7.30;99.90;;;;;;6061198;23;20737;-85
2020/12/12 23:09:54;;;;;;;8.98;8.18;;;7.20;99.90;;;;;;6060505;23;20197;-85
2020/12/12 23:12:20;;;;;;;8.25;7.55;;;7.70;99.90;;;;;;6060364;23;20186;-85
2020/12/12 23:14:46;;;;;;;7.25;6.55;;;7.20;99.90;;;;;;6061432;23;20205;-85
2020/12/12 23:17:13;;;;;;;8.48;7.78;;;7.40;99.90;;;;;;6061978;23;20260;-85
2020/12/12 23:19:40;;;;;;;7.47;6.78;;;7.70;99.90;;;;;;6062012;23;20182;-85
2020/12/12 23:22:07;;;;;;;8.80;8.00;;;8.10;99.90;;;;;;6062899;23;20177;-84
2020/12/12 23:24:38;;;;;;;7.97;7.18;;;7.80;99.90;;;;;;6062495;23;20182;-85
2020/12/12 23:27:06;;;;;;;7.50;6.75;;;7.30;99.90;;;;;;6062831;23;20234;-86
2020/12/12 23:32:37;;;;;;;8.55;7.75;;;7.40;99.90;;;;;;6054985;23;20521;-84
2020/12/12 23:35:19;;;;;;;8.88;8.18;;;8.20;99.90;;;;;;6059817;23;20163;-82
2020/12/12 23:50:19;;;;;;;8.07;7.30;;;6.90;99.90;;;;;;5795174;24;20225;-83
2020/12/12 23:52:45;;;;;;;8.55;7.22;;;7.10;99.90;;;;;;5953332;24;20188;-84
2020/12/12 23:55:12;;;;;;;9.30;8.30;;;7.20;99.90;;;;;;5991863;23;20529;-83
2020/12/12 23:57:39;;;;;;;8.32;7.63;;;7.30;99.90;;;;;;6053723;23;20206;-83
